Aérodrome :
LOGIN :

S'inscrire | Disclaimer

   EN    FR    IT 

 










Légende :    VFR   VFR Marginal   IFR   IFR Intensif   IFR Très Intensif
Visi : 
Plafond : 
>= 8 km
>= 3000ft
5 à 8 km
1000 à 3000 ft
1500m à 5 km
500 à 1000 ft
800 à 1500m
200 à 500 ft
< 800m
< 200 ft
Symboles :   Orages  Brouillard  Fortes neiges  Fortes précipitations  Vent > 20 kt
SIGMETs :   Divers  Orages  Givrage  Turbulence  Onde Orograph.  Cendres Volcan.







- Altitude de l'aérodrome : 1119 ft


GMAG - Guelmime

DERNIER METAR :
  • 181700Z 30006KT 8000 NSC 34/16 Q1011 NOSIG

METARs EXPIRÉS :
  • 181600Z 30012KT 8000 NSC 34/17 Q1011 NOSIG
  • 181500Z 20010G20KT 8000 FEW020 SCT100 36/13 Q1011 NOSIG

TAF N/A
Pas de NOTAMs connus pour ce terrain.
4 SIGMETs publiés pour la FIR Casablanca (GMMM) :
 
Orages noyés dans la masse
GMMM SIGMET S1 VALID 181625/182025 GMMC
GMMM CASABLANCA FIR EMBD TS OBS WI N3131 W00639 - N2915 W00957 - N30 02 W00742 - N3131 W00639 TOP FL320 STNR INTSF=
Orages noyés dans la masse
GMMM SIGMET R1 VALID 181400/181800 GMMC
GMMM CASABLANCA FIR EMBD TS FCST E OF LINE N3510 W00358 - N3150 W005 38 - N3141 W00303 TOP FL420 STNR INTSF=
Annulation du SIGMET 01
GMMM SIGMET 02 VALID 181617/182015 GMMC
GMMM CASABLANCA FIR CNL SIGMET 01 181615/182015=
SIGMET 01  ANNULÉ :
Orages noyés dans la masse
GMMM SIGMET 01 VALID 181615/182015 GMMC
GMMM CASABLANCA FIR EMBD TS OBS WI N3131 W00639 - N2915 W00957 - N30 02 W00742 - N3131 W00639 TOP FL340 STNR INTSF=



MET'MAP, la Météo Aéronautique d'un coup d'oeil ! - Copyright ORBIFLY Décembre 2007 - Disclaimer

ORBIFLY MET'MAP TEAM :

Programmation & Développement : Alexandra Zaïnal
Conception & Développement : Baudouin d'Aumeries
Co-Programmation & Développement : Marc-Olivier Méhu
Soutien technique & logistique : Manuel Goepfert

Contact : metmap@orbifly.com




SOURCES & CREDITS :

   NOAA